sensor_id;sensor_type;location;lat;lon;timestamp;P1;durP1;ratioP1;P2;durP2;ratioP2
18544;SDS011;9402;51.460;7.276;2023-11-19T00:00:13;1.17;;;1.07;;
18544;SDS011;9402;51.460;7.276;2023-11-19T00:02:14;1.20;;;1.20;;
18544;SDS011;9402;51.460;7.276;2023-11-19T00:04:16;1.70;;;1.60;;
18544;SDS011;9402;51.460;7.276;2023-11-19T00:06:17;1.90;;;1.60;;
18544;SDS011;9402;51.460;7.276;2023-11-19T00:08:18;1.73;;;1.17;;
18544;SDS011;9402;51.460;7.276;2023-11-19T00:10:20;2.70;;;1.60;;
18544;SDS011;9402;51.460;7.276;2023-11-19T00:12:22;2.30;;;2.10;;
18544;SDS011;9402;51.460;7.276;2023-11-19T00:14:22;2.70;;;2.40;;
18544;SDS011;9402;51.460;7.276;2023-11-19T00:16:27;2.80;;;2.20;;
18544;SDS011;9402;51.460;7.276;2023-11-19T00:18:28;2.87;;;2.47;;
18544;SDS011;9402;51.460;7.276;2023-11-19T00:20:29;2.77;;;2.50;;
18544;SDS011;9402;51.460;7.276;2023-11-19T00:22:31;4.40;;;3.03;;
18544;SDS011;9402;51.460;7.276;2023-11-19T00:24:31;3.30;;;3.10;;
18544;SDS011;9402;51.460;7.276;2023-11-19T00:26:33;3.60;;;3.30;;
18544;SDS011;9402;51.460;7.276;2023-11-19T00:28:35;3.73;;;3.43;;
18544;SDS011;9402;51.460;7.276;2023-11-19T00:30:38;4.50;;;4.20;;
18544;SDS011;9402;51.460;7.276;2023-11-19T00:32:42;3.87;;;3.67;;
18544;SDS011;9402;51.460;7.276;2023-11-19T00:34:44;4.13;;;3.93;;
18544;SDS011;9402;51.460;7.276;2023-11-19T00:36:48;4.60;;;4.20;;
18544;SDS011;9402;51.460;7.276;2023-11-19T00:38:49;5.00;;;4.57;;
18544;SDS011;9402;51.460;7.276;2023-11-19T00:40:53;4.87;;;4.47;;
18544;SDS011;9402;51.460;7.276;2023-11-19T00:42:55;4.97;;;4.67;;
18544;SDS011;9402;51.460;7.276;2023-11-19T00:44:56;7.43;;;5.43;;
18544;SDS011;9402;51.460;7.276;2023-11-19T00:46:58;5.57;;;5.07;;
18544;SDS011;9402;51.460;7.276;2023-11-19T00:49:01;7.37;;;4.77;;
18544;SDS011;9402;51.460;7.276;2023-11-19T00:51:03;4.93;;;4.53;;
18544;SDS011;9402;51.460;7.276;2023-11-19T00:53:05;5.60;;;5.20;;
18544;SDS011;9402;51.460;7.276;2023-11-19T00:55:07;6.07;;;4.70;;
18544;SDS011;9402;51.460;7.276;2023-11-19T00:57:08;8.00;;;5.90;;
18544;SDS011;9402;51.460;7.276;2023-11-19T00:59:10;5.50;;;5.00;;
18544;SDS011;9402;51.460;7.276;2023-11-19T01:01:12;8.93;;;6.60;;
18544;SDS011;9402;51.460;7.276;2023-11-19T01:03:13;7.60;;;6.87;;
18544;SDS011;9402;51.460;7.276;2023-11-19T01:05:17;6.90;;;5.57;;
18544;SDS011;9402;51.460;7.276;2023-11-19T01:07:21;7.57;;;6.77;;
18544;SDS011;9402;51.460;7.276;2023-11-19T01:09:24;8.53;;;7.67;;
18544;SDS011;9402;51.460;7.276;2023-11-19T01:11:26;4.93;;;4.43;;
18544;SDS011;9402;51.460;7.276;2023-11-19T01:13:28;8.83;;;6.53;;
18544;SDS011;9402;51.460;7.276;2023-11-19T01:15:29;7.53;;;5.67;;
18544;SDS011;9402;51.460;7.276;2023-11-19T01:17:31;6.43;;;5.90;;
18544;SDS011;9402;51.460;7.276;2023-11-19T01:19:33;5.60;;;5.20;;
18544;SDS011;9402;51.460;7.276;2023-11-19T01:21:35;7.40;;;6.60;;
18544;SDS011;9402;51.460;7.276;2023-11-19T01:23:37;8.40;;;6.77;;
18544;SDS011;9402;51.460;7.276;2023-11-19T01:25:39;6.43;;;5.70;;
18544;SDS011;9402;51.460;7.276;2023-11-19T01:27:40;11.00;;;8.03;;
18544;SDS011;9402;51.460;7.276;2023-11-19T01:29:42;8.03;;;6.60;;
18544;SDS011;9402;51.460;7.276;2023-11-19T01:31:43;6.53;;;5.90;;
18544;SDS011;9402;51.460;7.276;2023-11-19T01:33:46;7.93;;;7.20;;
18544;SDS011;9402;51.460;7.276;2023-11-19T01:35:48;6.73;;;6.13;;
18544;SDS011;9402;51.460;7.276;2023-11-19T01:37:51;10.33;;;7.30;;
18544;SDS011;9402;51.460;7.276;2023-11-19T01:39:53;9.73;;;8.10;;
18544;SDS011;9402;51.460;7.276;2023-11-19T01:41:53;5.13;;;4.73;;
18544;SDS011;9402;51.460;7.276;2023-11-19T01:43:55;7.37;;;6.73;;
18544;SDS011;9402;51.460;7.276;2023-11-19T01:45:56;6.20;;;5.70;;
18544;SDS011;9402;51.460;7.276;2023-11-19T01:47:58;3.40;;;3.10;;
18544;SDS011;9402;51.460;7.276;2023-11-19T01:50:00;6.77;;;5.07;;
18544;SDS011;9402;51.460;7.276;2023-11-19T01:52:06;4.40;;;3.57;;
18544;SDS011;9402;51.460;7.276;2023-11-19T01:54:09;7.40;;;3.33;;
18544;SDS011;9402;51.460;7.276;2023-11-19T01:56:12;6.20;;;4.80;;
18544;SDS011;9402;51.460;7.276;2023-11-19T01:58:14;4.97;;;4.07;;
18544;SDS011;9402;51.460;7.276;2023-11-19T02:00:16;2.90;;;2.70;;
18544;SDS011;9402;51.460;7.276;2023-11-19T02:02:18;4.33;;;3.50;;
18544;SDS011;9402;51.460;7.276;2023-11-19T02:04:20;4.17;;;2.83;;
18544;SDS011;9402;51.460;7.276;2023-11-19T02:06:22;4.40;;;4.00;;
18544;SDS011;9402;51.460;7.276;2023-11-19T02:08:24;6.10;;;3.93;;
18544;SDS011;9402;51.460;7.276;2023-11-19T02:10:27;3.70;;;3.43;;
18544;SDS011;9402;51.460;7.276;2023-11-19T02:12:29;6.40;;;5.40;;
18544;SDS011;9402;51.460;7.276;2023-11-19T02:14:29;4.50;;;4.17;;
18544;SDS011;9402;51.460;7.276;2023-11-19T02:16:31;5.03;;;3.93;;
18544;SDS011;9402;51.460;7.276;2023-11-19T02:18:32;5.10;;;4.70;;
18544;SDS011;9402;51.460;7.276;2023-11-19T02:20:33;10.30;;;2.40;;
18544;SDS011;9402;51.460;7.276;2023-11-19T02:22:35;10.47;;;3.67;;
18544;SDS011;9402;51.460;7.276;2023-11-19T02:24:36;4.50;;;4.10;;
18544;SDS011;9402;51.460;7.276;2023-11-19T02:26:42;4.23;;;3.83;;
18544;SDS011;9402;51.460;7.276;2023-11-19T02:28:45;5.63;;;3.80;;
18544;SDS011;9402;51.460;7.276;2023-11-19T02:30:47;6.50;;;4.40;;
18544;SDS011;9402;51.460;7.276;2023-11-19T02:32:48;8.90;;;4.13;;
18544;SDS011;9402;51.460;7.276;2023-11-19T02:34:49;7.13;;;3.37;;
18544;SDS011;9402;51.460;7.276;2023-11-19T02:36:53;4.17;;;3.20;;
18544;SDS011;9402;51.460;7.276;2023-11-19T02:38:54;10.10;;;3.57;;
18544;SDS011;9402;51.460;7.276;2023-11-19T02:40:55;7.37;;;3.53;;
18544;SDS011;9402;51.460;7.276;2023-11-19T02:42:56;8.37;;;2.17;;
18544;SDS011;9402;51.460;7.276;2023-11-19T02:44:59;7.50;;;3.13;;
18544;SDS011;9402;51.460;7.276;2023-11-19T02:47:01;11.00;;;3.73;;
18544;SDS011;9402;51.460;7.276;2023-11-19T02:49:04;13.93;;;4.80;;
18544;SDS011;9402;51.460;7.276;2023-11-19T02:51:06;11.17;;;3.20;;
18544;SDS011;9402;51.460;7.276;2023-11-19T02:53:09;6.73;;;2.40;;
18544;SDS011;9402;51.460;7.276;2023-11-19T02:55:10;13.87;;;3.20;;
18544;SDS011;9402;51.460;7.276;2023-11-19T02:57:12;5.90;;;2.47;;
18544;SDS011;9402;51.460;7.276;2023-11-19T02:59:14;7.53;;;2.53;;
18544;SDS011;9402;51.460;7.276;2023-11-19T03:01:28;14.50;;;3.40;;
18544;SDS011;9402;51.460;7.276;2023-11-19T03:03:30;9.60;;;2.83;;
18544;SDS011;9402;51.460;7.276;2023-11-19T03:05:38;17.50;;;3.20;;
18544;SDS011;9402;51.460;7.276;2023-11-19T03:07:41;11.23;;;2.97;;
18544;SDS011;9402;51.460;7.276;2023-11-19T03:09:43;16.93;;;3.47;;
18544;SDS011;9402;51.460;7.276;2023-11-19T03:11:44;14.37;;;3.00;;
18544;SDS011;9402;51.460;7.276;2023-11-19T03:13:46;13.17;;;3.53;;
18544;SDS011;9402;51.460;7.276;2023-11-19T03:15:47;11.87;;;3.60;;
18544;SDS011;9402;51.460;7.276;2023-11-19T03:17:50;13.90;;;3.97;;
18544;SDS011;9402;51.460;7.276;2023-11-19T03:19:52;11.30;;;3.33;;
18544;SDS011;9402;51.460;7.276;2023-11-19T03:21:53;13.93;;;4.00;;
18544;SDS011;9402;51.460;7.276;2023-11-19T03:23:54;16.03;;;4.10;;
18544;SDS011;9402;51.460;7.276;2023-11-19T03:25:56;18.27;;;4.40;;
18544;SDS011;9402;51.460;7.276;2023-11-19T03:27:58;9.60;;;2.97;;
18544;SDS011;9402;51.460;7.276;2023-11-19T03:29:58;19.23;;;3.47;;
18544;SDS011;9402;51.460;7.276;2023-11-19T03:32:00;18.30;;;4.80;;
18544;SDS011;9402;51.460;7.276;2023-11-19T03:34:03;18.73;;;4.40;;
18544;SDS011;9402;51.460;7.276;2023-11-19T03:36:04;12.27;;;4.10;;
18544;SDS011;9402;51.460;7.276;2023-11-19T03:38:06;17.30;;;3.87;;
18544;SDS011;9402;51.460;7.276;2023-11-19T03:40:08;11.37;;;4.00;;
18544;SDS011;9402;51.460;7.276;2023-11-19T03:42:10;21.73;;;4.17;;
18544;SDS011;9402;51.460;7.276;2023-11-19T03:44:13;23.07;;;4.37;;
18544;SDS011;9402;51.460;7.276;2023-11-19T03:46:18;11.27;;;4.23;;
18544;SDS011;9402;51.460;7.276;2023-11-19T03:48:19;19.93;;;4.00;;
18544;SDS011;9402;51.460;7.276;2023-11-19T03:50:22;19.37;;;4.97;;
18544;SDS011;9402;51.460;7.276;2023-11-19T03:52:24;24.53;;;4.43;;
18544;SDS011;9402;51.460;7.276;2023-11-19T03:54:27;13.40;;;4.80;;
18544;SDS011;9402;51.460;7.276;2023-11-19T03:56:28;26.60;;;5.17;;
18544;SDS011;9402;51.460;7.276;2023-11-19T03:58:31;26.03;;;5.07;;
18544;SDS011;9402;51.460;7.276;2023-11-19T04:00:33;21.80;;;4.83;;
18544;SDS011;9402;51.460;7.276;2023-11-19T04:02:34;24.97;;;5.27;;
18544;SDS011;9402;51.460;7.276;2023-11-19T04:04:36;27.93;;;5.30;;
18544;SDS011;9402;51.460;7.276;2023-11-19T04:06:40;28.97;;;4.73;;
18544;SDS011;9402;51.460;7.276;2023-11-19T04:08:41;18.30;;;4.93;;
18544;SDS011;9402;51.460;7.276;2023-11-19T04:10:43;19.53;;;5.40;;
18544;SDS011;9402;51.460;7.276;2023-11-19T04:12:45;16.67;;;4.40;;
18544;SDS011;9402;51.460;7.276;2023-11-19T04:14:47;20.00;;;4.57;;
18544;SDS011;9402;51.460;7.276;2023-11-19T04:16:47;27.80;;;4.83;;
18544;SDS011;9402;51.460;7.276;2023-11-19T04:18:49;14.30;;;4.23;;
18544;SDS011;9402;51.460;7.276;2023-11-19T04:20:50;24.73;;;6.27;;
18544;SDS011;9402;51.460;7.276;2023-11-19T04:22:53;16.47;;;4.30;;
18544;SDS011;9402;51.460;7.276;2023-11-19T04:24:55;24.20;;;4.60;;
18544;SDS011;9402;51.460;7.276;2023-11-19T04:26:56;24.50;;;4.70;;
18544;SDS011;9402;51.460;7.276;2023-11-19T04:28:58;24.40;;;5.27;;
18544;SDS011;9402;51.460;7.276;2023-11-19T04:31:00;30.83;;;4.30;;
18544;SDS011;9402;51.460;7.276;2023-11-19T04:33:03;11.40;;;3.67;;
18544;SDS011;9402;51.460;7.276;2023-11-19T04:35:06;29.83;;;4.07;;
18544;SDS011;9402;51.460;7.276;2023-11-19T04:37:09;24.30;;;5.57;;
18544;SDS011;9402;51.460;7.276;2023-11-19T04:39:12;21.90;;;4.53;;
18544;SDS011;9402;51.460;7.276;2023-11-19T04:41:15;30.13;;;5.10;;
18544;SDS011;9402;51.460;7.276;2023-11-19T04:43:17;34.33;;;3.57;;
18544;SDS011;9402;51.460;7.276;2023-11-19T04:45:19;31.07;;;4.90;;
18544;SDS011;9402;51.460;7.276;2023-11-19T04:47:21;18.23;;;4.30;;
18544;SDS011;9402;51.460;7.276;2023-11-19T04:49:22;26.17;;;4.77;;
18544;SDS011;9402;51.460;7.276;2023-11-19T04:51:26;15.90;;;4.17;;
18544;SDS011;9402;51.460;7.276;2023-11-19T04:53:29;17.73;;;4.20;;
18544;SDS011;9402;51.460;7.276;2023-11-19T04:55:32;23.27;;;4.60;;
18544;SDS011;9402;51.460;7.276;2023-11-19T04:57:33;28.30;;;5.70;;
18544;SDS011;9402;51.460;7.276;2023-11-19T04:59:43;39.63;;;4.90;;
18544;SDS011;9402;51.460;7.276;2023-11-19T05:01:46;32.00;;;6.27;;
18544;SDS011;9402;51.460;7.276;2023-11-19T05:03:48;26.03;;;4.30;;
18544;SDS011;9402;51.460;7.276;2023-11-19T05:05:48;31.17;;;4.67;;
18544;SDS011;9402;51.460;7.276;2023-11-19T05:07:50;26.97;;;5.00;;
18544;SDS011;9402;51.460;7.276;2023-11-19T05:09:51;26.83;;;4.80;;
18544;SDS011;9402;51.460;7.276;2023-11-19T05:11:53;23.07;;;4.20;;
18544;SDS011;9402;51.460;7.276;2023-11-19T05:13:55;22.73;;;5.10;;
18544;SDS011;9402;51.460;7.276;2023-11-19T05:15:56;28.50;;;5.00;;
18544;SDS011;9402;51.460;7.276;2023-11-19T05:17:58;36.83;;;6.37;;
18544;SDS011;9402;51.460;7.276;2023-11-19T05:20:00;35.00;;;5.07;;
18544;SDS011;9402;51.460;7.276;2023-11-19T05:22:01;30.07;;;5.50;;
18544;SDS011;9402;51.460;7.276;2023-11-19T05:24:03;24.10;;;5.50;;
18544;SDS011;9402;51.460;7.276;2023-11-19T05:26:05;28.43;;;5.43;;
18544;SDS011;9402;51.460;7.276;2023-11-19T05:28:07;38.93;;;6.50;;
18544;SDS011;9402;51.460;7.276;2023-11-19T05:30:09;30.97;;;6.10;;
18544;SDS011;9402;51.460;7.276;2023-11-19T05:32:11;36.73;;;6.30;;
18544;SDS011;9402;51.460;7.276;2023-11-19T05:34:12;27.70;;;6.17;;
18544;SDS011;9402;51.460;7.276;2023-11-19T05:36:15;39.53;;;5.60;;
18544;SDS011;9402;51.460;7.276;2023-11-19T05:38:17;43.90;;;6.13;;
18544;SDS011;9402;51.460;7.276;2023-11-19T05:40:18;24.63;;;5.27;;
18544;SDS011;9402;51.460;7.276;2023-11-19T05:42:23;28.23;;;5.40;;
18544;SDS011;9402;51.460;7.276;2023-11-19T05:44:26;37.33;;;5.80;;
18544;SDS011;9402;51.460;7.276;2023-11-19T05:46:28;28.50;;;5.23;;
18544;SDS011;9402;51.460;7.276;2023-11-19T05:48:29;36.43;;;6.43;;
18544;SDS011;9402;51.460;7.276;2023-11-19T05:50:31;29.70;;;6.00;;
18544;SDS011;9402;51.460;7.276;2023-11-19T05:52:33;33.13;;;5.47;;
18544;SDS011;9402;51.460;7.276;2023-11-19T05:54:34;35.93;;;5.90;;
18544;SDS011;9402;51.460;7.276;2023-11-19T05:56:37;42.50;;;6.37;;
18544;SDS011;9402;51.460;7.276;2023-11-19T05:58:39;52.83;;;6.60;;
18544;SDS011;9402;51.460;7.276;2023-11-19T06:00:42;25.83;;;5.30;;
18544;SDS011;9402;51.460;7.276;2023-11-19T06:02:44;35.47;;;5.83;;
18544;SDS011;9402;51.460;7.276;2023-11-19T06:04:45;29.17;;;5.23;;
18544;SDS011;9402;51.460;7.276;2023-11-19T06:06:48;32.87;;;5.23;;
18544;SDS011;9402;51.460;7.276;2023-11-19T06:08:49;31.57;;;5.80;;
18544;SDS011;9402;51.460;7.276;2023-11-19T06:10:51;33.47;;;5.87;;
18544;SDS011;9402;51.460;7.276;2023-11-19T06:12:53;38.87;;;5.77;;
18544;SDS011;9402;51.460;7.276;2023-11-19T06:14:57;38.17;;;6.03;;
18544;SDS011;9402;51.460;7.276;2023-11-19T06:17:00;30.60;;;5.43;;
18544;SDS011;9402;51.460;7.276;2023-11-19T06:19:01;26.07;;;5.63;;
18544;SDS011;9402;51.460;7.276;2023-11-19T06:21:03;30.83;;;5.47;;
18544;SDS011;9402;51.460;7.276;2023-11-19T06:23:05;35.97;;;5.80;;
18544;SDS011;9402;51.460;7.276;2023-11-19T06:25:06;41.63;;;7.20;;
18544;SDS011;9402;51.460;7.276;2023-11-19T06:27:08;23.80;;;5.00;;
18544;SDS011;9402;51.460;7.276;2023-11-19T06:29:09;51.43;;;7.27;;
18544;SDS011;9402;51.460;7.276;2023-11-19T06:31:11;39.43;;;5.70;;
18544;SDS011;9402;51.460;7.276;2023-11-19T06:33:17;30.60;;;5.00;;
18544;SDS011;9402;51.460;7.276;2023-11-19T06:35:19;31.30;;;6.40;;
18544;SDS011;9402;51.460;7.276;2023-11-19T06:37:20;38.90;;;6.73;;
18544;SDS011;9402;51.460;7.276;2023-11-19T06:39:21;22.97;;;6.10;;
18544;SDS011;9402;51.460;7.276;2023-11-19T06:41:22;30.87;;;5.60;;
18544;SDS011;9402;51.460;7.276;2023-11-19T06:43:23;34.93;;;4.70;;
18544;SDS011;9402;51.460;7.276;2023-11-19T06:45:25;33.93;;;5.60;;
18544;SDS011;9402;51.460;7.276;2023-11-19T06:47:27;31.57;;;5.07;;
18544;SDS011;9402;51.460;7.276;2023-11-19T06:49:30;35.60;;;5.70;;
18544;SDS011;9402;51.460;7.276;2023-11-19T06:51:31;36.17;;;5.80;;
18544;SDS011;9402;51.460;7.276;2023-11-19T06:53:32;38.23;;;5.60;;
18544;SDS011;9402;51.460;7.276;2023-11-19T06:55:34;20.50;;;5.10;;
18544;SDS011;9402;51.460;7.276;2023-11-19T06:57:36;40.33;;;6.30;;
18544;SDS011;9402;51.460;7.276;2023-11-19T06:59:37;42.30;;;5.67;;
18544;SDS011;9402;51.460;7.276;2023-11-19T07:01:39;34.97;;;5.50;;
18544;SDS011;9402;51.460;7.276;2023-11-19T07:03:44;21.67;;;4.97;;
18544;SDS011;9402;51.460;7.276;2023-11-19T07:05:47;22.40;;;5.30;;
18544;SDS011;9402;51.460;7.276;2023-11-19T07:07:49;40.73;;;5.97;;
18544;SDS011;9402;51.460;7.276;2023-11-19T07:09:50;28.77;;;4.80;;
18544;SDS011;9402;51.460;7.276;2023-11-19T07:11:52;38.70;;;5.90;;
18544;SDS011;9402;51.460;7.276;2023-11-19T07:13:53;28.93;;;5.00;;
18544;SDS011;9402;51.460;7.276;2023-11-19T07:15:55;24.67;;;4.50;;
18544;SDS011;9402;51.460;7.276;2023-11-19T07:17:57;33.90;;;5.50;;
18544;SDS011;9402;51.460;7.276;2023-11-19T07:19:59;31.70;;;5.13;;
18544;SDS011;9402;51.460;7.276;2023-11-19T07:22:02;40.07;;;6.30;;
18544;SDS011;9402;51.460;7.276;2023-11-19T07:24:04;31.30;;;5.17;;
18544;SDS011;9402;51.460;7.276;2023-11-19T07:26:06;40.77;;;6.03;;
18544;SDS011;9402;51.460;7.276;2023-11-19T07:28:09;30.30;;;4.50;;
18544;SDS011;9402;51.460;7.276;2023-11-19T07:30:10;37.97;;;5.83;;
18544;SDS011;9402;51.460;7.276;2023-11-19T07:32:11;31.33;;;5.60;;
18544;SDS011;9402;51.460;7.276;2023-11-19T07:34:13;26.47;;;4.53;;
18544;SDS011;9402;51.460;7.276;2023-11-19T07:36:15;31.17;;;5.90;;
18544;SDS011;9402;51.460;7.276;2023-11-19T07:38:18;29.60;;;4.57;;
18544;SDS011;9402;51.460;7.276;2023-11-19T07:40:19;34.03;;;5.20;;
18544;SDS011;9402;51.460;7.276;2023-11-19T07:42:21;30.83;;;4.87;;
18544;SDS011;9402;51.460;7.276;2023-11-19T07:44:23;33.20;;;5.60;;
18544;SDS011;9402;51.460;7.276;2023-11-19T07:46:24;39.37;;;6.60;;
18544;SDS011;9402;51.460;7.276;2023-11-19T07:48:27;35.00;;;6.10;;
18544;SDS011;9402;51.460;7.276;2023-11-19T07:50:28;34.03;;;5.30;;
18544;SDS011;9402;51.460;7.276;2023-11-19T07:52:31;47.10;;;6.70;;
18544;SDS011;9402;51.460;7.276;2023-11-19T07:54:34;44.73;;;6.07;;
18544;SDS011;9402;51.460;7.276;2023-11-19T07:56:36;36.83;;;6.87;;
18544;SDS011;9402;51.460;7.276;2023-11-19T07:58:37;32.67;;;6.73;;
18544;SDS011;9402;51.460;7.276;2023-11-19T08:00:39;39.73;;;6.17;;
18544;SDS011;9402;51.460;7.276;2023-11-19T08:02:41;31.77;;;5.80;;
18544;SDS011;9402;51.460;7.276;2023-11-19T08:04:43;23.97;;;5.07;;
18544;SDS011;9402;51.460;7.276;2023-11-19T08:06:46;23.40;;;5.17;;
18544;SDS011;9402;51.460;7.276;2023-11-19T08:08:47;39.23;;;7.57;;
18544;SDS011;9402;51.460;7.276;2023-11-19T08:10:50;30.30;;;5.23;;
18544;SDS011;9402;51.460;7.276;2023-11-19T08:12:53;25.20;;;5.10;;
18544;SDS011;9402;51.460;7.276;2023-11-19T08:14:54;40.90;;;6.00;;
18544;SDS011;9402;51.460;7.276;2023-11-19T08:16:56;30.37;;;5.23;;
18544;SDS011;9402;51.460;7.276;2023-11-19T08:18:57;30.90;;;5.80;;
18544;SDS011;9402;51.460;7.276;2023-11-19T08:20:59;34.73;;;6.10;;
18544;SDS011;9402;51.460;7.276;2023-11-19T08:23:01;34.07;;;5.33;;
18544;SDS011;9402;51.460;7.276;2023-11-19T08:25:03;32.87;;;6.27;;
18544;SDS011;9402;51.460;7.276;2023-11-19T08:27:07;34.67;;;5.60;;
18544;SDS011;9402;51.460;7.276;2023-11-19T08:29:08;53.67;;;6.83;;
18544;SDS011;9402;51.460;7.276;2023-11-19T08:31:10;34.70;;;5.70;;
18544;SDS011;9402;51.460;7.276;2023-11-19T08:33:10;39.43;;;5.50;;
18544;SDS011;9402;51.460;7.276;2023-11-19T08:35:12;32.93;;;6.23;;
18544;SDS011;9402;51.460;7.276;2023-11-19T08:37:16;41.07;;;6.67;;
18544;SDS011;9402;51.460;7.276;2023-11-19T08:39:18;36.17;;;6.00;;
18544;SDS011;9402;51.460;7.276;2023-11-19T08:41:20;38.03;;;6.90;;
18544;SDS011;9402;51.460;7.276;2023-11-19T08:43:23;40.23;;;7.03;;
18544;SDS011;9402;51.460;7.276;2023-11-19T08:45:25;39.37;;;6.60;;
18544;SDS011;9402;51.460;7.276;2023-11-19T08:47:27;42.37;;;8.00;;
18544;SDS011;9402;51.460;7.276;2023-11-19T08:49:30;37.27;;;6.17;;
18544;SDS011;9402;51.460;7.276;2023-11-19T08:51:31;48.93;;;6.97;;
18544;SDS011;9402;51.460;7.276;2023-11-19T08:53:33;36.00;;;5.20;;
18544;SDS011;9402;51.460;7.276;2023-11-19T08:55:35;26.53;;;5.80;;
18544;SDS011;9402;51.460;7.276;2023-11-19T08:57:37;36.80;;;5.57;;
18544;SDS011;9402;51.460;7.276;2023-11-19T08:59:39;39.17;;;6.43;;
18544;SDS011;9402;51.460;7.276;2023-11-19T09:01:40;39.53;;;6.20;;
18544;SDS011;9402;51.460;7.276;2023-11-19T09:03:42;28.30;;;6.47;;
18544;SDS011;9402;51.460;7.276;2023-11-19T09:05:43;42.83;;;6.60;;
18544;SDS011;9402;51.460;7.276;2023-11-19T09:07:45;40.07;;;7.30;;
18544;SDS011;9402;51.460;7.276;2023-11-19T09:09:47;31.00;;;6.00;;
18544;SDS011;9402;51.460;7.276;2023-11-19T09:11:48;36.73;;;7.07;;
18544;SDS011;9402;51.460;7.276;2023-11-19T09:13:50;34.57;;;5.83;;
18544;SDS011;9402;51.460;7.276;2023-11-19T09:15:53;38.13;;;6.10;;
18544;SDS011;9402;51.460;7.276;2023-11-19T09:17:53;33.57;;;6.10;;
18544;SDS011;9402;51.460;7.276;2023-11-19T09:19:55;44.00;;;6.30;;
18544;SDS011;9402;51.460;7.276;2023-11-19T09:21:57;39.60;;;7.63;;
18544;SDS011;9402;51.460;7.276;2023-11-19T09:23:59;36.40;;;6.03;;
18544;SDS011;9402;51.460;7.276;2023-11-19T09:26:00;44.53;;;7.00;;
18544;SDS011;9402;51.460;7.276;2023-11-19T09:28:02;34.73;;;7.23;;
18544;SDS011;9402;51.460;7.276;2023-11-19T09:30:03;38.00;;;5.20;;
18544;SDS011;9402;51.460;7.276;2023-11-19T09:32:07;26.90;;;5.47;;
18544;SDS011;9402;51.460;7.276;2023-11-19T09:34:08;27.87;;;5.63;;
18544;SDS011;9402;51.460;7.276;2023-11-19T09:36:11;37.83;;;6.80;;
18544;SDS011;9402;51.460;7.276;2023-11-19T09:38:14;37.33;;;6.73;;
18544;SDS011;9402;51.460;7.276;2023-11-19T09:40:15;35.07;;;6.30;;
18544;SDS011;9402;51.460;7.276;2023-11-19T09:42:18;37.07;;;6.40;;
18544;SDS011;9402;51.460;7.276;2023-11-19T09:44:19;29.87;;;5.60;;
18544;SDS011;9402;51.460;7.276;2023-11-19T09:46:20;38.60;;;5.77;;
18544;SDS011;9402;51.460;7.276;2023-11-19T09:48:26;40.57;;;7.00;;
18544;SDS011;9402;51.460;7.276;2023-11-19T09:50:28;43.97;;;7.50;;
18544;SDS011;9402;51.460;7.276;2023-11-19T09:52:30;56.87;;;6.80;;
18544;SDS011;9402;51.460;7.276;2023-11-19T09:54:32;30.03;;;6.07;;
18544;SDS011;9402;51.460;7.276;2023-11-19T09:56:33;34.33;;;5.63;;
18544;SDS011;9402;51.460;7.276;2023-11-19T09:58:37;38.20;;;7.23;;
18544;SDS011;9402;51.460;7.276;2023-11-19T10:00:38;27.50;;;5.80;;
18544;SDS011;9402;51.460;7.276;2023-11-19T10:02:39;34.73;;;5.60;;
18544;SDS011;9402;51.460;7.276;2023-11-19T10:04:43;52.73;;;6.87;;
18544;SDS011;9402;51.460;7.276;2023-11-19T10:06:47;41.77;;;5.80;;
18544;SDS011;9402;51.460;7.276;2023-11-19T10:08:48;37.07;;;5.80;;
18544;SDS011;9402;51.460;7.276;2023-11-19T10:10:49;26.00;;;6.03;;
18544;SDS011;9402;51.460;7.276;2023-11-19T10:12:52;54.97;;;6.67;;
18544;SDS011;9402;51.460;7.276;2023-11-19T10:14:53;33.63;;;5.80;;
18544;SDS011;9402;51.460;7.276;2023-11-19T10:16:56;27.77;;;6.03;;
18544;SDS011;9402;51.460;7.276;2023-11-19T10:18:58;38.63;;;6.60;;
18544;SDS011;9402;51.460;7.276;2023-11-19T10:21:01;43.03;;;5.83;;
18544;SDS011;9402;51.460;7.276;2023-11-19T10:23:03;40.50;;;7.07;;
18544;SDS011;9402;51.460;7.276;2023-11-19T10:25:05;39.33;;;6.77;;
18544;SDS011;9402;51.460;7.276;2023-11-19T10:27:07;38.73;;;6.40;;
18544;SDS011;9402;51.460;7.276;2023-11-19T10:29:09;40.40;;;6.47;;
18544;SDS011;9402;51.460;7.276;2023-11-19T10:31:13;40.23;;;7.20;;
18544;SDS011;9402;51.460;7.276;2023-11-19T10:33:14;37.10;;;8.80;;
18544;SDS011;9402;51.460;7.276;2023-11-19T10:35:17;45.20;;;7.53;;
18544;SDS011;9402;51.460;7.276;2023-11-19T10:37:28;31.07;;;6.20;;
18544;SDS011;9402;51.460;7.276;2023-11-19T10:39:37;38.20;;;6.07;;
18544;SDS011;9402;51.460;7.276;2023-11-19T10:41:53;34.10;;;5.63;;
18544;SDS011;9402;51.460;7.276;2023-11-19T10:43:55;32.23;;;6.33;;
18544;SDS011;9402;51.460;7.276;2023-11-19T10:46:08;46.77;;;7.27;;
18544;SDS011;9402;51.460;7.276;2023-11-19T10:48:11;33.03;;;7.83;;
18544;SDS011;9402;51.460;7.276;2023-11-19T10:50:12;29.60;;;5.97;;
18544;SDS011;9402;51.460;7.276;2023-11-19T10:52:17;58.33;;;8.23;;
18544;SDS011;9402;51.460;7.276;2023-11-19T10:54:20;42.60;;;7.17;;
18544;SDS011;9402;51.460;7.276;2023-11-19T10:56:23;43.87;;;6.70;;
18544;SDS011;9402;51.460;7.276;2023-11-19T10:58:26;37.83;;;5.93;;
18544;SDS011;9402;51.460;7.276;2023-11-19T11:00:30;53.07;;;7.80;;
18544;SDS011;9402;51.460;7.276;2023-11-19T11:02:35;36.33;;;7.33;;
18544;SDS011;9402;51.460;7.276;2023-11-19T11:04:41;32.50;;;6.00;;
18544;SDS011;9402;51.460;7.276;2023-11-19T11:06:43;46.17;;;7.00;;
18544;SDS011;9402;51.460;7.276;2023-11-19T11:08:45;41.97;;;8.07;;
18544;SDS011;9402;51.460;7.276;2023-11-19T11:10:52;39.10;;;6.43;;
18544;SDS011;9402;51.460;7.276;2023-11-19T11:12:54;39.10;;;6.10;;
18544;SDS011;9402;51.460;7.276;2023-11-19T11:14:58;31.00;;;6.47;;
18544;SDS011;9402;51.460;7.276;2023-11-19T11:17:00;36.70;;;5.83;;
18544;SDS011;9402;51.460;7.276;2023-11-19T11:19:03;34.20;;;6.20;;
18544;SDS011;9402;51.460;7.276;2023-11-19T11:21:07;34.33;;;5.80;;
18544;SDS011;9402;51.460;7.276;2023-11-19T11:25:58;38.77;;;6.30;;
18544;SDS011;9402;51.460;7.276;2023-11-19T11:28:07;27.80;;;5.47;;
18544;SDS011;9402;51.460;7.276;2023-11-19T11:30:19;35.13;;;5.90;;
18544;SDS011;9402;51.460;7.276;2023-11-19T11:32:26;38.43;;;5.40;;
18544;SDS011;9402;51.460;7.276;2023-11-19T11:34:43;22.53;;;5.17;;
18544;SDS011;9402;51.460;7.276;2023-11-19T11:36:55;20.23;;;4.80;;
18544;SDS011;9402;51.460;7.276;2023-11-19T11:38:59;32.00;;;5.47;;
18544;SDS011;9402;51.460;7.276;2023-11-19T11:41:18;37.83;;;4.97;;
18544;SDS011;9402;51.460;7.276;2023-11-19T11:45:44;33.43;;;5.00;;
18544;SDS011;9402;51.460;7.276;2023-11-19T11:50:11;28.97;;;6.20;;
18544;SDS011;9402;51.460;7.276;2023-11-19T11:52:13;25.73;;;5.40;;
18544;SDS011;9402;51.460;7.276;2023-11-19T11:54:25;32.17;;;6.27;;
18544;SDS011;9402;51.460;7.276;2023-11-19T11:56:33;42.53;;;6.27;;
18544;SDS011;9402;51.460;7.276;2023-11-19T11:58:38;31.90;;;5.50;;
18544;SDS011;9402;51.460;7.276;2023-11-19T12:00:42;39.87;;;6.53;;
18544;SDS011;9402;51.460;7.276;2023-11-19T12:02:43;38.43;;;6.73;;
18544;SDS011;9402;51.460;7.276;2023-11-19T12:04:49;26.33;;;5.43;;
18544;SDS011;9402;51.460;7.276;2023-11-19T12:07:02;22.73;;;5.83;;
18544;SDS011;9402;51.460;7.276;2023-11-19T12:09:03;25.53;;;6.17;;
18544;SDS011;9402;51.460;7.276;2023-11-19T12:11:07;35.03;;;6.10;;
18544;SDS011;9402;51.460;7.276;2023-11-19T12:13:10;38.83;;;7.17;;
18544;SDS011;9402;51.460;7.276;2023-11-19T12:15:12;47.50;;;4.83;;
18544;SDS011;9402;51.460;7.276;2023-11-19T12:19:40;38.17;;;5.63;;
18544;SDS011;9402;51.460;7.276;2023-11-19T12:21:42;22.70;;;4.43;;
18544;SDS011;9402;51.460;7.276;2023-11-19T12:23:44;29.83;;;4.87;;
18544;SDS011;9402;51.460;7.276;2023-11-19T12:25:50;27.37;;;4.97;;
18544;SDS011;9402;51.460;7.276;2023-11-19T12:27:51;22.17;;;4.40;;
18544;SDS011;9402;51.460;7.276;2023-11-19T12:29:54;35.43;;;5.83;;